Time;durP1;ratioP1;P1;durP2;ratioP2;P2;SDS_P1;SDS_P2;PMS_P1;PMS_P2;Temp;Humidity;BMP_temperature;BMP_pressure;BME280_temperature;BME280_humidity;BME280_pressure;Samples;Min_cycle;Max_cycle;Signal;HPM_P1;HPM_P2
2023/09/28 00:01:22;;;;;;;6.32;5.85;;;;;;;;;;5096282;28;20283;-66
2023/09/28 00:03:48;;;;;;;7.00;6.45;;;;;;;;;;5096644;28;20210;-66
2023/09/28 00:06:16;;;;;;;6.82;6.32;;;;;;;;;;5096664;28;20312;-66
2023/09/28 00:08:42;;;;;;;7.00;6.40;;;;;;;;;;5096291;28;20204;-66
2023/09/28 00:11:10;;;;;;;6.65;6.15;;;;;;;;;;5096826;28;20196;-66
2023/09/28 00:13:37;;;;;;;6.53;6.05;;;;;;;;;;5096518;28;20558;-66
2023/09/28 00:16:04;;;;;;;5.82;5.43;;;;;;;;;;5097068;28;20200;-66
2023/09/28 00:18:32;;;;;;;6.47;5.97;;;;;;;;;;5096443;28;20222;-66
2023/09/28 00:21:01;;;;;;;6.80;6.30;;;;;;;;;;5096722;28;20215;-66
2023/09/28 00:23:28;;;;;;;6.65;6.15;;;;;;;;;;5096068;28;20200;-66
2023/09/28 00:25:57;;;;;;;6.47;5.97;;;;;;;;;;5096613;28;20200;-66
2023/09/28 00:28:24;;;;;;;6.20;5.70;;;;;;;;;;5096053;28;20212;-65
2023/09/28 00:30:52;;;;;;;6.30;5.80;;;;;;;;;;5096672;28;20199;-66
2023/09/28 00:33:19;;;;;;;6.50;6.00;;;;;;;;;;5096540;28;20231;-66
2023/09/28 00:35:48;;;;;;;6.20;5.70;;;;;;;;;;5097891;28;20257;-66
2023/09/28 00:38:14;;;;;;;6.03;5.63;;;;;;;;;;5100265;28;20214;-66
2023/09/28 00:40:42;;;;;;;5.80;5.40;;;;;;;;;;5100559;28;20200;-66
2023/09/28 00:43:09;;;;;;;6.25;5.75;;;;;;;;;;5100322;28;20592;-66
2023/09/28 00:45:39;;;;;;;6.22;5.72;;;;;;;;;;5100462;28;20203;-66
2023/09/28 00:48:07;;;;;;;6.50;6.00;;;;;;;;;;5099830;28;20203;-66
2023/09/28 00:50:34;;;;;;;6.45;5.95;;;;;;;;;;5100265;28;20199;-66
2023/09/28 00:53:04;;;;;;;5.88;5.38;;;;;;;;;;5099632;28;20322;-66
2023/09/28 00:55:32;;;;;;;6.45;5.95;;;;;;;;;;5099641;28;20268;-66
2023/09/28 00:58:01;;;;;;;6.07;5.68;;;;;;;;;;5099367;28;20203;-66
2023/09/28 01:00:33;;;;;;;6.65;6.15;;;;;;;;;;5099230;28;20250;-66
2023/09/28 01:03:02;;;;;;;6.40;5.90;;;;;;;;;;5099513;28;20200;-66
2023/09/28 01:05:31;;;;;;;6.03;5.53;;;;;;;;;;5099348;28;20235;-66
2023/09/28 01:07:59;;;;;;;6.40;5.90;;;;;;;;;;5099884;28;20200;-66
2023/09/28 01:10:29;;;;;;;5.97;5.55;;;;;;;;;;5099836;28;20608;-66
2023/09/28 01:12:57;;;;;;;6.15;5.65;;;;;;;;;;5099666;28;20230;-66
2023/09/28 01:15:24;;;;;;;6.55;6.03;;;;;;;;;;5099350;28;20303;-66
2023/09/28 01:17:52;;;;;;;6.18;5.68;;;;;;;;;;5100151;28;20286;-67
2023/09/28 01:20:22;;;;;;;5.90;5.40;;;;;;;;;;5099879;28;20614;-65
2023/09/28 01:22:53;;;;;;;5.90;5.50;;;;;;;;;;5099273;28;20206;-65
2023/09/28 01:25:20;;;;;;;6.07;5.55;;;;;;;;;;5099216;28;20215;-65
2023/09/28 01:27:50;;;;;;;5.68;5.20;;;;;;;;;;5099921;28;20200;-65
2023/09/28 01:30:17;;;;;;;5.93;5.53;;;;;;;;;;5098770;28;20203;-65
2023/09/28 01:32:45;;;;;;;5.65;5.15;;;;;;;;;;5099400;28;20629;-65
2023/09/28 01:35:11;;;;;;;6.00;5.60;;;;;;;;;;5098921;28;20211;-67
2023/09/28 01:37:44;;;;;;;5.90;5.50;;;;;;;;;;5099839;28;20199;-65
2023/09/28 01:40:13;;;;;;;5.55;5.15;;;;;;;;;;5099304;28;20276;-65
2023/09/28 01:42:40;;;;;;;5.53;5.13;;;;;;;;;;5099404;28;20229;-65
2023/09/28 01:45:07;;;;;;;5.55;5.15;;;;;;;;;;5099494;28;20208;-66
2023/09/28 01:47:35;;;;;;;5.93;5.53;;;;;;;;;;5098054;28;20234;-66
2023/09/28 01:50:03;;;;;;;5.57;5.18;;;;;;;;;;5099593;28;20203;-66
2023/09/28 01:52:30;;;;;;;5.75;5.35;;;;;;;;;;5098887;28;20232;-66
2023/09/28 01:54:57;;;;;;;5.93;5.53;;;;;;;;;;5099260;28;20203;-66
2023/09/28 01:57:26;;;;;;;6.28;5.78;;;;;;;;;;5099319;28;20552;-66
2023/09/28 01:59:53;;;;;;;5.57;5.18;;;;;;;;;;5098582;28;20207;-66
2023/09/28 02:02:21;;;;;;;5.68;5.28;;;;;;;;;;5099126;28;20195;-66
2023/09/28 02:04:48;;;;;;;6.10;5.60;;;;;;;;;;5099008;28;20476;-66
2023/09/28 02:07:15;;;;;;;5.70;5.30;;;;;;;;;;5098140;28;20268;-65
2023/09/28 02:09:42;;;;;;;5.78;5.38;;;;;;;;;;5098460;28;20485;-65
2023/09/28 02:12:10;;;;;;;5.95;5.55;;;;;;;;;;5099025;28;20207;-65
2023/09/28 02:14:38;;;;;;;5.80;5.40;;;;;;;;;;5098121;28;20203;-65
2023/09/28 02:17:06;;;;;;;5.85;5.45;;;;;;;;;;5098396;28;20227;-66
2023/09/28 02:19:32;;;;;;;5.32;4.93;;;;;;;;;;5098513;28;20207;-66
2023/09/28 02:22:00;;;;;;;5.82;5.43;;;;;;;;;;5099185;28;20561;-66
2023/09/28 02:24:27;;;;;;;5.90;5.50;;;;;;;;;;5098584;28;20203;-65
2023/09/28 02:26:55;;;;;;;5.32;4.93;;;;;;;;;;5097877;28;20219;-65
2023/09/28 02:32:27;;;;;;;5.32;4.95;;;;;;;;;;5583242;22;21692;-64
2023/09/28 02:34:53;;;;;;;5.80;5.40;;;;;;;;;;5057840;28;20291;-64
2023/09/28 02:37:21;;;;;;;5.85;5.45;;;;;;;;;;5057963;28;20211;-64
2023/09/28 02:39:48;;;;;;;5.72;5.22;;;;;;;;;;5057638;28;20209;-64
2023/09/28 02:42:16;;;;;;;6.22;5.75;;;;;;;;;;5057767;28;20208;-64
2023/09/28 02:44:42;;;;;;;5.65;5.25;;;;;;;;;;5057290;28;20238;-64
2023/09/28 02:47:10;;;;;;;5.65;5.25;;;;;;;;;;5058122;28;20201;-64
2023/09/28 02:49:38;;;;;;;6.13;5.72;;;;;;;;;;5057102;28;20301;-65
2023/09/28 02:52:07;;;;;;;5.50;5.10;;;;;;;;;;5057707;28;20212;-65
2023/09/28 02:54:33;;;;;;;6.13;5.63;;;;;;;;;;5057507;28;20201;-65
2023/09/28 02:57:01;;;;;;;5.68;5.28;;;;;;;;;;5056686;28;20516;-65
2023/09/28 02:59:28;;;;;;;5.65;5.25;;;;;;;;;;5057308;28;20271;-65
2023/09/28 03:01:56;;;;;;;5.25;4.85;;;;;;;;;;5057322;28;20296;-65
2023/09/28 03:04:22;;;;;;;5.72;5.32;;;;;;;;;;5057044;28;20201;-65
2023/09/28 03:06:52;;;;;;;5.65;5.25;;;;;;;;;;5057323;28;20232;-65
2023/09/28 03:09:19;;;;;;;5.47;5.07;;;;;;;;;;5057379;28;20587;-65
2023/09/28 03:11:47;;;;;;;5.57;5.18;;;;;;;;;;5056833;28;20567;-65
2023/09/28 03:14:13;;;;;;;5.43;5.00;;;;;;;;;;5056852;28;20224;-65
2023/09/28 03:16:41;;;;;;;5.40;5.00;;;;;;;;;;5056695;28;20282;-65
2023/09/28 03:19:08;;;;;;;5.78;5.38;;;;;;;;;;5056116;28;20216;-65
2023/09/28 03:21:36;;;;;;;5.18;4.88;;;;;;;;;;5056244;28;20213;-65
2023/09/28 03:24:04;;;;;;;5.22;4.80;;;;;;;;;;5056547;28;20223;-65
2023/09/28 03:26:33;;;;;;;5.63;5.22;;;;;;;;;;5056687;28;20567;-65
2023/09/28 03:29:00;;;;;;;5.35;4.95;;;;;;;;;;5056834;28;20571;-65
2023/09/28 03:31:28;;;;;;;5.88;5.38;;;;;;;;;;5056316;28;20212;-65
2023/09/28 03:33:55;;;;;;;5.30;4.90;;;;;;;;;;5056212;28;20240;-64
2023/09/28 03:36:23;;;;;;;5.30;5.00;;;;;;;;;;5056249;28;20200;-64
2023/09/28 03:38:50;;;;;;;5.30;4.90;;;;;;;;;;5056535;28;20205;-64
2023/09/28 03:41:19;;;;;;;4.90;4.60;;;;;;;;;;5056385;28;20485;-65
2023/09/28 03:43:48;;;;;;;5.70;5.30;;;;;;;;;;5055936;28;20617;-65
2023/09/28 03:46:19;;;;;;;5.78;5.38;;;;;;;;;;5056403;28;20235;-64
2023/09/28 03:48:47;;;;;;;5.63;5.22;;;;;;;;;;5048963;28;20212;-65
2023/09/28 03:51:16;;;;;;;5.70;5.30;;;;;;;;;;5056117;28;20300;-65
2023/09/28 03:53:43;;;;;;;5.57;5.18;;;;;;;;;;5055760;28;20606;-65
2023/09/28 03:56:11;;;;;;;5.50;5.05;;;;;;;;;;5055922;28;20293;-65
2023/09/28 03:58:40;;;;;;;5.63;5.20;;;;;;;;;;5055537;28;20205;-65
2023/09/28 04:01:08;;;;;;;5.25;4.85;;;;;;;;;;5055478;28;20212;-65
2023/09/28 04:03:36;;;;;;;5.10;4.70;;;;;;;;;;5055209;28;20200;-65
2023/09/28 04:06:04;;;;;;;5.32;4.97;;;;;;;;;;5054789;28;20208;-65
2023/09/28 04:08:31;;;;;;;5.38;4.90;;;;;;;;;;5055523;28;20331;-64
2023/09/28 04:10:59;;;;;;;5.28;4.90;;;;;;;;;;5057156;28;20678;-64
2023/09/28 04:13:26;;;;;;;5.32;4.93;;;;;;;;;;5059923;28;20233;-65
2023/09/28 04:15:55;;;;;;;5.65;5.25;;;;;;;;;;5059070;28;20590;-64
2023/09/28 04:18:23;;;;;;;5.28;4.88;;;;;;;;;;5059062;28;20225;-65
2023/09/28 04:20:50;;;;;;;5.45;5.10;;;;;;;;;;5059333;28;20291;-65
2023/09/28 04:23:18;;;;;;;5.20;4.80;;;;;;;;;;5059398;28;20197;-65
2023/09/28 04:25:45;;;;;;;4.85;4.50;;;;;;;;;;5059484;28;20240;-65
2023/09/28 04:28:13;;;;;;;5.32;4.95;;;;;;;;;;5059278;28;20209;-65
2023/09/28 04:30:40;;;;;;;5.30;4.90;;;;;;;;;;5058606;28;20205;-65
2023/09/28 04:33:09;;;;;;;5.78;5.30;;;;;;;;;;5059031;28;20256;-64
2023/09/28 04:35:37;;;;;;;4.97;4.60;;;;;;;;;;5058665;28;20251;-65
2023/09/28 04:38:04;;;;;;;5.00;4.60;;;;;;;;;;5059263;28;20205;-65
2023/09/28 04:40:32;;;;;;;5.20;4.80;;;;;;;;;;5058782;28;20291;-65
2023/09/28 04:42:59;;;;;;;5.18;4.80;;;;;;;;;;5058510;28;20224;-64
2023/09/28 04:45:27;;;;;;;5.30;4.90;;;;;;;;;;5058162;28;20240;-65
2023/09/28 04:47:55;;;;;;;5.15;4.75;;;;;;;;;;5058388;28;20312;-65
2023/09/28 04:50:23;;;;;;;5.40;5.00;;;;;;;;;;5057828;28;20267;-64
2023/09/28 04:52:51;;;;;;;5.45;4.97;;;;;;;;;;5058190;28;20232;-64
2023/09/28 04:55:18;;;;;;;5.32;4.90;;;;;;;;;;5056917;28;20235;-64
2023/09/28 04:57:46;;;;;;;5.05;4.75;;;;;;;;;;5056149;28;20686;-65
2023/09/28 05:00:16;;;;;;;5.30;4.90;;;;;;;;;;5057547;28;20215;-65
2023/09/28 05:02:45;;;;;;;5.10;4.70;;;;;;;;;;5056895;28;20292;-65
2023/09/28 05:05:13;;;;;;;4.75;4.45;;;;;;;;;;5057705;28;20607;-64
2023/09/28 05:07:42;;;;;;;5.35;4.95;;;;;;;;;;5056300;28;20262;-64
2023/09/28 05:10:10;;;;;;;5.05;4.65;;;;;;;;;;5057557;28;20217;-64
2023/09/28 05:12:37;;;;;;;5.45;5.05;;;;;;;;;;5056934;28;20300;-64
2023/09/28 05:15:06;;;;;;;5.00;4.70;;;;;;;;;;5056332;28;20228;-64
2023/09/28 05:17:33;;;;;;;5.18;4.82;;;;;;;;;;5056216;28;20508;-64
2023/09/28 05:20:00;;;;;;;4.95;4.65;;;;;;;;;;5055747;28;20303;-64
2023/09/28 05:22:28;;;;;;;5.22;4.88;;;;;;;;;;5056900;28;20251;-64
2023/09/28 05:24:57;;;;;;;5.43;5.03;;;;;;;;;;5056922;28;20223;-64
2023/09/28 05:27:25;;;;;;;5.40;5.00;;;;;;;;;;5055335;28;20213;-64
2023/09/28 05:29:52;;;;;;;5.20;4.80;;;;;;;;;;5057379;28;20240;-64
2023/09/28 05:32:20;;;;;;;4.97;4.68;;;;;;;;;;5056716;28;20240;-64
2023/09/28 05:34:48;;;;;;;5.30;4.90;;;;;;;;;;5056254;28;20221;-64
2023/09/28 05:37:15;;;;;;;5.65;5.13;;;;;;;;;;5056374;28;20495;-64
2023/09/28 05:39:43;;;;;;;5.68;5.18;;;;;;;;;;5056982;28;20212;-64
2023/09/28 05:42:12;;;;;;;5.40;5.00;;;;;;;;;;5057226;28;20244;-64
2023/09/28 05:44:39;;;;;;;5.30;4.90;;;;;;;;;;5056837;28;20198;-64
2023/09/28 05:47:07;;;;;;;5.70;5.30;;;;;;;;;;5055238;28;20206;-64
2023/09/28 05:49:34;;;;;;;5.60;5.20;;;;;;;;;;5055766;28;20201;-65
2023/09/28 05:52:02;;;;;;;5.78;5.38;;;;;;;;;;5056997;28;20205;-65
2023/09/28 05:54:29;;;;;;;5.68;5.28;;;;;;;;;;5056476;28;20232;-64
2023/09/28 05:56:57;;;;;;;5.45;5.05;;;;;;;;;;5056523;28;20240;-64
2023/09/28 05:59:26;;;;;;;5.15;4.75;;;;;;;;;;5055654;28;20726;-64
2023/09/28 06:01:53;;;;;;;5.43;5.03;;;;;;;;;;5056337;28;20205;-64
2023/09/28 06:04:21;;;;;;;5.65;5.25;;;;;;;;;;5056090;28;20236;-64
2023/09/28 06:06:50;;;;;;;5.97;5.57;;;;;;;;;;5056469;28;20300;-64
2023/09/28 06:09:19;;;;;;;5.55;5.15;;;;;;;;;;5057044;28;20267;-64
2023/09/28 06:11:48;;;;;;;5.45;5.05;;;;;;;;;;5055947;28;20205;-64
2023/09/28 06:14:16;;;;;;;5.65;5.25;;;;;;;;;;5055838;28;20294;-64
2023/09/28 06:16:44;;;;;;;5.70;5.15;;;;;;;;;;5054610;28;20669;-64
2023/09/28 06:19:13;;;;;;;5.82;5.38;;;;;;;;;;5055226;28;20279;-64
2023/09/28 06:21:40;;;;;;;5.65;5.18;;;;;;;;;;5055994;28;20292;-64
2023/09/28 06:24:08;;;;;;;5.80;5.30;;;;;;;;;;5056182;28;20201;-64
2023/09/28 06:26:37;;;;;;;5.40;5.00;;;;;;;;;;5056245;28;20287;-64
2023/09/28 06:29:05;;;;;;;5.40;4.90;;;;;;;;;;5057159;28;20265;-64
2023/09/28 06:31:33;;;;;;;5.30;4.90;;;;;;;;;;5056279;28;20266;-64
2023/09/28 06:34:01;;;;;;;5.30;4.90;;;;;;;;;;5055034;28;20442;-64
2023/09/28 06:36:28;;;;;;;5.43;5.03;;;;;;;;;;5056460;28;20205;-64
2023/09/28 06:38:56;;;;;;;5.70;5.30;;;;;;;;;;5055203;28;20208;-64
2023/09/28 06:41:23;;;;;;;5.85;5.45;;;;;;;;;;5055355;28;20292;-64
2023/09/28 06:43:51;;;;;;;5.70;5.20;;;;;;;;;;5054860;28;20292;-64
2023/09/28 06:46:19;;;;;;;5.53;5.03;;;;;;;;;;5055764;28;20267;-64
2023/09/28 06:48:46;;;;;;;5.70;5.18;;;;;;;;;;5055454;28;20299;-64
2023/09/28 06:51:16;;;;;;;5.70;5.30;;;;;;;;;;5055019;28;20269;-64
2023/09/28 06:53:43;;;;;;;5.45;5.05;;;;;;;;;;5055522;28;20228;-64
2023/09/28 06:56:11;;;;;;;5.45;5.05;;;;;;;;;;5055634;28;20304;-64
2023/09/28 06:58:38;;;;;;;5.32;4.93;;;;;;;;;;5054998;28;20419;-64
2023/09/28 07:01:06;;;;;;;5.85;5.45;;;;;;;;;;5054692;28;20216;-64
2023/09/28 07:03:34;;;;;;;5.35;5.00;;;;;;;;;;5054907;28;20208;-64
2023/09/28 07:06:01;;;;;;;5.57;5.18;;;;;;;;;;5056050;28;20738;-64
2023/09/28 07:08:30;;;;;;;5.50;5.10;;;;;;;;;;5056250;28;20304;-64
2023/09/28 07:10:58;;;;;;;5.43;5.03;;;;;;;;;;5055196;28;20282;-64
2023/09/28 07:13:25;;;;;;;4.90;4.60;;;;;;;;;;5055533;28;20213;-64
2023/09/28 07:15:52;;;;;;;6.25;5.75;;;;;;;;;;5056343;28;20680;-64
2023/09/28 07:18:20;;;;;;;5.45;5.05;;;;;;;;;;5055678;28;20300;-64
2023/09/28 07:20:47;;;;;;;5.32;4.93;;;;;;;;;;5054848;28;20327;-64
2023/09/28 07:23:15;;;;;;;5.93;5.43;;;;;;;;;;5054092;28;20315;-64
2023/09/28 07:25:44;;;;;;;5.53;5.07;;;;;;;;;;5055315;28;20194;-64
2023/09/28 07:28:12;;;;;;;5.57;5.18;;;;;;;;;;5055997;28;20204;-64
2023/09/28 07:30:39;;;;;;;6.05;5.57;;;;;;;;;;5054333;28;20678;-64
2023/09/28 07:33:07;;;;;;;5.45;5.05;;;;;;;;;;5054572;28;20338;-65
2023/09/28 07:35:34;;;;;;;5.30;4.90;;;;;;;;;;5054614;28;20221;-64
2023/09/28 07:38:02;;;;;;;5.50;5.10;;;;;;;;;;5054991;28;20461;-64
2023/09/28 07:40:30;;;;;;;5.25;4.85;;;;;;;;;;5055255;28;20209;-64
2023/09/28 07:42:59;;;;;;;5.53;5.13;;;;;;;;;;5055086;28;20205;-64
2023/09/28 07:45:26;;;;;;;5.30;4.90;;;;;;;;;;5054915;28;20246;-64
2023/09/28 07:47:54;;;;;;;4.70;4.40;;;;;;;;;;5054392;28;20236;-64
2023/09/28 07:50:21;;;;;;;5.60;5.20;;;;;;;;;;5055148;28;20255;-64
2023/09/28 07:52:49;;;;;;;5.45;5.05;;;;;;;;;;5054521;28;20219;-64
2023/09/28 07:55:16;;;;;;;5.32;4.93;;;;;;;;;;5054519;28;20286;-64
2023/09/28 07:57:46;;;;;;;5.30;4.90;;;;;;;;;;5053451;28;20288;-65
2023/09/28 08:00:17;;;;;;;5.32;4.93;;;;;;;;;;5053752;28;20212;-64
2023/09/28 08:02:45;;;;;;;5.70;5.20;;;;;;;;;;5054907;28;20207;-64
2023/09/28 08:05:13;;;;;;;5.13;4.72;;;;;;;;;;5055534;28;20224;-64
2023/09/28 08:07:42;;;;;;;5.00;4.65;;;;;;;;;;5054802;28;20201;-64
2023/09/28 08:10:10;;;;;;;5.68;5.28;;;;;;;;;;5054440;28;20236;-64
2023/09/28 08:12:38;;;;;;;5.32;4.93;;;;;;;;;;5054829;28;20197;-64
2023/09/28 08:15:05;;;;;;;5.10;4.80;;;;;;;;;;5050997;28;20637;-64
2023/09/28 08:17:36;;;;;;;5.28;4.88;;;;;;;;;;5052004;28;20666;-64
2023/09/28 08:20:03;;;;;;;5.43;5.03;;;;;;;;;;5048288;28;20211;-64
2023/09/28 08:22:33;;;;;;;5.07;4.68;;;;;;;;;;5051640;28;20296;-64
2023/09/28 08:25:01;;;;;;;5.45;4.95;;;;;;;;;;5051786;28;20477;-64
2023/09/28 08:27:29;;;;;;;5.03;4.65;;;;;;;;;;5053716;28;20291;-64
2023/09/28 08:29:57;;;;;;;5.40;4.90;;;;;;;;;;5053923;28;20204;-64
2023/09/28 08:32:25;;;;;;;4.82;4.53;;;;;;;;;;5053817;28;20209;-64
2023/09/28 08:34:54;;;;;;;5.30;4.90;;;;;;;;;;5054461;28;20325;-64
2023/09/28 08:37:24;;;;;;;5.03;4.63;;;;;;;;;;5053934;28;20303;-64
2023/09/28 08:39:52;;;;;;;5.43;5.03;;;;;;;;;;5054001;28;20205;-64
2023/09/28 08:42:25;;;;;;;5.28;4.88;;;;;;;;;;5054102;28;20205;-64
2023/09/28 08:44:56;;;;;;;5.30;4.90;;;;;;;;;;5053723;28;20214;-64
2023/09/28 08:47:23;;;;;;;5.18;4.78;;;;;;;;;;5054427;28;20213;-64
2023/09/28 08:49:52;;;;;;;5.55;5.13;;;;;;;;;;5054463;28;20209;-64
2023/09/28 08:52:21;;;;;;;5.72;5.32;;;;;;;;;;5054924;28;20296;-64
2023/09/28 08:54:50;;;;;;;5.60;5.20;;;;;;;;;;5053868;28;20225;-64
2023/09/28 08:57:18;;;;;;;5.50;5.10;;;;;;;;;;5055639;28;20197;-64
2023/09/28 08:59:46;;;;;;;6.07;5.57;;;;;;;;;;5057836;28;20266;-64
2023/09/28 09:02:15;;;;;;;5.88;5.47;;;;;;;;;;5057652;28;20197;-64
2023/09/28 09:04:42;;;;;;;6.43;5.93;;;;;;;;;;5057415;28;20286;-64
2023/09/28 09:07:10;;;;;;;5.80;5.40;;;;;;;;;;5058209;28;20418;-64
2023/09/28 09:09:41;;;;;;;6.30;5.80;;;;;;;;;;5057988;28;20209;-64
2023/09/28 09:12:10;;;;;;;5.60;5.15;;;;;;;;;;5056765;28;20287;-64
2023/09/28 09:14:38;;;;;;;7.00;6.03;;;;;;;;;;5057094;28;20321;-64
2023/09/28 09:17:08;;;;;;;6.22;5.72;;;;;;;;;;5057907;28;20224;-64
2023/09/28 09:19:35;;;;;;;6.22;5.75;;;;;;;;;;5056969;28;20596;-64
2023/09/28 09:22:04;;;;;;;6.20;5.70;;;;;;;;;;5056400;28;20255;-64
2023/09/28 09:24:32;;;;;;;5.95;5.40;;;;;;;;;;5056886;28;20560;-65
2023/09/28 09:27:01;;;;;;;6.18;5.68;;;;;;;;;;5055459;28;20208;-64
2023/09/28 09:29:28;;;;;;;6.60;6.10;;;;;;;;;;5055925;28;20200;-64
2023/09/28 09:31:56;;;;;;;5.85;5.45;;;;;;;;;;5055760;28;20200;-64
2023/09/28 09:34:24;;;;;;;6.32;5.82;;;;;;;;;;5054933;28;20232;-64
2023/09/28 09:36:53;;;;;;;5.90;5.40;;;;;;;;;;5056077;28;20267;-64
2023/09/28 09:39:25;;;;;;;5.63;5.20;;;;;;;;;;5056186;28;20638;-64
2023/09/28 09:41:53;;;;;;;5.47;4.97;;;;;;;;;;5055627;28;20295;-64
2023/09/28 09:44:23;;;;;;;5.90;5.47;;;;;;;;;;5055748;28;20268;-64
2023/09/28 09:46:52;;;;;;;5.88;5.38;;;;;;;;;;5056277;28;20598;-64
2023/09/28 09:49:24;;;;;;;5.88;5.38;;;;;;;;;;5056711;28;20205;-64
2023/09/28 09:51:51;;;;;;;5.60;5.18;;;;;;;;;;5056776;28;20282;-64
2023/09/28 09:54:20;;;;;;;5.32;4.82;;;;;;;;;;5056333;28;20739;-64
2023/09/28 09:56:49;;;;;;;5.50;5.00;;;;;;;;;;5056197;28;20213;-64
2023/09/28 09:59:17;;;;;;;5.90;5.40;;;;;;;;;;5056114;28;20572;-64
2023/09/28 10:01:47;;;;;;;5.85;5.43;;;;;;;;;;5055428;28;20205;-64
2023/09/28 10:04:16;;;;;;;5.88;5.38;;;;;;;;;;5055691;28;20212;-64
2023/09/28 10:06:47;;;;;;;6.00;5.50;;;;;;;;;;5055690;28;20201;-64
2023/09/28 10:09:15;;;;;;;5.80;5.30;;;;;;;;;;5054778;28;20197;-64
2023/09/28 10:11:44;;;;;;;6.28;5.80;;;;;;;;;;5055872;28;20292;-64
2023/09/28 10:14:11;;;;;;;5.57;5.10;;;;;;;;;;5056140;28;20208;-64
2023/09/28 10:16:39;;;;;;;5.60;5.10;;;;;;;;;;5055742;28;20264;-64
2023/09/28 10:19:08;;;;;;;5.47;5.07;;;;;;;;;;5056541;28;20942;-64
2023/09/28 10:21:37;;;;;;;5.30;4.90;;;;;;;;;;5056106;28;20300;-64
2023/09/28 10:24:11;;;;;;;5.45;5.05;;;;;;;;;;5055605;28;20215;-64
2023/09/28 10:26:39;;;;;;;5.88;5.38;;;;;;;;;;5055445;28;20209;-64
2023/09/28 10:29:08;;;;;;;5.75;5.25;;;;;;;;;;5055246;28;20571;-64
2023/09/28 10:31:37;;;;;;;5.50;5.10;;;;;;;;;;5054680;28;20296;-64
2023/09/28 10:34:05;;;;;;;5.30;4.90;;;;;;;;;;5053801;28;20239;-64
2023/09/28 10:36:35;;;;;;;5.47;4.97;;;;;;;;;;5054179;28;20319;-64
2023/09/28 10:39:11;;;;;;;5.00;4.60;;;;;;;;;;5054443;28;20458;-64
2023/09/28 10:41:39;;;;;;;5.25;4.78;;;;;;;;;;5054089;28;20661;-64
2023/09/28 10:44:13;;;;;;;5.32;4.82;;;;;;;;;;5053107;28;20205;-64
2023/09/28 10:46:41;;;;;;;4.93;4.63;;;;;;;;;;5054023;28;20192;-64
2023/09/28 10:49:08;;;;;;;4.85;4.47;;;;;;;;;;5054246;28;20213;-64
2023/09/28 10:51:37;;;;;;;4.82;4.43;;;;;;;;;;5054375;28;20614;-64
2023/09/28 10:54:06;;;;;;;4.60;4.30;;;;;;;;;;5053755;28;20299;-64
2023/09/28 10:56:33;;;;;;;4.88;4.50;;;;;;;;;;5054041;28;20228;-64
2023/09/28 10:59:04;;;;;;;4.88;4.47;;;;;;;;;;5053092;28;20303;-64
2023/09/28 11:01:32;;;;;;;4.68;4.22;;;;;;;;;;5054136;28;20270;-64
2023/09/28 11:04:00;;;;;;;4.40;4.10;;;;;;;;;;5052854;28;20204;-64
2023/09/28 11:06:27;;;;;;;4.55;4.20;;;;;;;;;;5053785;28;20845;-64
2023/09/28 11:09:01;;;;;;;4.47;4.07;;;;;;;;;;5054021;28;20303;-64
2023/09/28 11:11:28;;;;;;;4.55;4.13;;;;;;;;;;5053655;28;20559;-64
2023/09/28 11:13:57;;;;;;;4.75;4.30;;;;;;;;;;5053641;28;20211;-64
2023/09/28 11:16:25;;;;;;;4.25;3.90;;;;;;;;;;5054034;28;20229;-64
2023/09/28 11:18:53;;;;;;;4.32;4.03;;;;;;;;;;5053883;28;20215;-64
2023/09/28 11:21:21;;;;;;;4.50;4.20;;;;;;;;;;5053423;28;20294;-64
2023/09/28 11:23:50;;;;;;;4.28;3.85;;;;;;;;;;5053139;28;20205;-64
2023/09/28 11:26:19;;;;;;;4.40;4.10;;;;;;;;;;5052348;28;20292;-64
2023/09/28 11:28:47;;;;;;;3.80;3.53;;;;;;;;;;5054327;28;20569;-64
2023/09/28 11:31:15;;;;;;;4.30;4.00;;;;;;;;;;5054030;28;20197;-64
2023/09/28 11:33:43;;;;;;;4.25;3.90;;;;;;;;;;5053151;28;20240;-64
2023/09/28 11:36:14;;;;;;;4.05;3.75;;;;;;;;;;5053615;28;20319;-64
2023/09/28 11:38:42;;;;;;;4.00;3.70;;;;;;;;;;5053873;28;20209;-64
2023/09/28 11:41:09;;;;;;;4.10;3.80;;;;;;;;;;5053360;28;20266;-64
2023/09/28 11:43:47;;;;;;;4.18;3.83;;;;;;;;;;5053437;28;20304;-64
2023/09/28 11:46:14;;;;;;;4.25;3.85;;;;;;;;;;5053214;28;20200;-64
2023/09/28 11:48:42;;;;;;;3.58;3.28;;;;;;;;;;5054601;28;20201;-64
2023/09/28 11:51:09;;;;;;;4.50;4.05;;;;;;;;;;5054810;28;20205;-64
2023/09/28 11:53:41;;;;;;;4.32;4.03;;;;;;;;;;5054340;28;20307;-64
2023/09/28 11:56:09;;;;;;;4.00;3.70;;;;;;;;;;5053441;28;20722;-64
2023/09/28 11:58:37;;;;;;;4.03;3.70;;;;;;;;;;5054273;28;20205;-64
2023/09/28 12:01:05;;;;;;;3.88;3.53;;;;;;;;;;5053991;28;20209;-64
2023/09/28 12:03:34;;;;;;;5.68;3.80;;;;;;;;;;5053354;28;20563;-64
2023/09/28 12:06:03;;;;;;;4.10;3.70;;;;;;;;;;5053459;28;20196;-64
2023/09/28 12:08:30;;;;;;;4.30;3.90;;;;;;;;;;5053426;28;20267;-64
2023/09/28 12:10:59;;;;;;;3.67;3.38;;;;;;;;;;5053939;28;20223;-64
2023/09/28 12:13:27;;;;;;;4.00;3.60;;;;;;;;;;5054280;28;20299;-64
2023/09/28 12:15:56;;;;;;;3.40;3.10;;;;;;;;;;5052543;28;20339;-64
2023/09/28 12:18:25;;;;;;;3.42;3.22;;;;;;;;;;5052773;28;20207;-64
2023/09/28 12:20:52;;;;;;;3.90;3.50;;;;;;;;;;5053563;28;20259;-64
2023/09/28 12:23:20;;;;;;;3.70;3.50;;;;;;;;;;5052400;28;20550;-64
2023/09/28 12:25:48;;;;;;;3.75;3.45;;;;;;;;;;5052318;28;20224;-64
2023/09/28 12:28:15;;;;;;;3.67;3.38;;;;;;;;;;5052480;28;20480;-64
2023/09/28 12:30:43;;;;;;;3.72;3.42;;;;;;;;;;5052173;28;20311;-64
2023/09/28 12:33:10;;;;;;;3.90;3.60;;;;;;;;;;5055449;28;20237;-64
2023/09/28 12:35:39;;;;;;;3.90;3.60;;;;;;;;;;5055974;28;20601;-64
2023/09/28 12:38:07;;;;;;;3.38;3.08;;;;;;;;;;5056912;28;20508;-65
2023/09/28 12:40:35;;;;;;;4.07;3.75;;;;;;;;;;5056323;28;20205;-64
2023/09/28 12:43:05;;;;;;;3.47;3.17;;;;;;;;;;5055437;28;20209;-65
2023/09/28 12:45:34;;;;;;;3.45;3.15;;;;;;;;;;5056099;28;20523;-65
2023/09/28 12:48:02;;;;;;;3.85;3.45;;;;;;;;;;5056235;28;20201;-65
2023/09/28 12:50:29;;;;;;;3.83;3.50;;;;;;;;;;5056260;28;20286;-65
2023/09/28 12:52:58;;;;;;;3.20;2.90;;;;;;;;;;5057073;28;20197;-64
2023/09/28 12:55:26;;;;;;;3.55;3.22;;;;;;;;;;5056531;28;20216;-65
2023/09/28 12:57:55;;;;;;;3.45;3.15;;;;;;;;;;5055934;28;20270;-65
2023/09/28 13:00:25;;;;;;;3.38;3.08;;;;;;;;;;5056263;28;20564;-65
2023/09/28 13:02:52;;;;;;;3.35;3.05;;;;;;;;;;5056688;28;20240;-65
2023/09/28 13:05:20;;;;;;;3.38;3.08;;;;;;;;;;5055469;28;20661;-65
2023/09/28 13:07:49;;;;;;;4.13;2.80;;;;;;;;;;5056590;28;20278;-65
2023/09/28 13:10:22;;;;;;;3.05;2.75;;;;;;;;;;5056285;28;20236;-65
2023/09/28 13:12:50;;;;;;;2.90;2.70;;;;;;;;;;5056666;28;20308;-64
2023/09/28 13:15:18;;;;;;;2.85;2.65;;;;;;;;;;5056135;28;20488;-64
2023/09/28 13:17:46;;;;;;;3.17;2.88;;;;;;;;;;5055901;28;20204;-64
2023/09/28 13:20:24;;;;;;;2.80;2.60;;;;;;;;;;5056135;28;20268;-64
2023/09/28 13:22:53;;;;;;;2.85;2.65;;;;;;;;;;5056960;28;20233;-65
2023/09/28 13:25:24;;;;;;;3.10;2.90;;;;;;;;;;5056061;28;20239;-64
2023/09/28 13:27:51;;;;;;;2.97;2.78;;;;;;;;;;5055681;28;20209;-64
2023/09/28 13:30:22;;;;;;;3.05;2.80;;;;;;;;;;5055704;28;20211;-64
2023/09/28 13:32:50;;;;;;;3.70;2.97;;;;;;;;;;5055425;28;20233;-65
2023/09/28 13:35:18;;;;;;;3.10;2.80;;;;;;;;;;5055653;28;20205;-65
2023/09/28 13:37:45;;;;;;;2.60;2.40;;;;;;;;;;5055814;28;20236;-64
2023/09/28 13:40:23;;;;;;;2.65;2.45;;;;;;;;;;5055606;28;20315;-64
2023/09/28 13:42:53;;;;;;;2.90;2.70;;;;;;;;;;5055164;28;20207;-64
2023/09/28 13:45:21;;;;;;;2.70;2.50;;;;;;;;;;5056319;28;20364;-64
2023/09/28 13:47:48;;;;;;;3.00;2.80;;;;;;;;;;5054824;28;20199;-65
2023/09/28 13:50:17;;;;;;;3.00;2.80;;;;;;;;;;5055364;28;20288;-65
2023/09/28 13:52:45;;;;;;;3.53;2.63;;;;;;;;;;5054759;28;20204;-65
2023/09/28 13:55:15;;;;;;;2.90;2.70;;;;;;;;;;5055888;28;20299;-65
2023/09/28 13:57:44;;;;;;;2.67;2.47;;;;;;;;;;5054569;28;20278;-65
2023/09/28 14:00:22;;;;;;;3.22;2.80;;;;;;;;;;5054512;28;20205;-65
2023/09/28 14:02:49;;;;;;;3.08;2.88;;;;;;;;;;5054457;28;20205;-64
2023/09/28 14:05:17;;;;;;;2.78;2.47;;;;;;;;;;5054229;28;20257;-65
2023/09/28 14:07:44;;;;;;;2.50;2.30;;;;;;;;;;5054106;28;20201;-65
2023/09/28 14:10:13;;;;;;;3.15;2.50;;;;;;;;;;5053638;28;20211;-65
2023/09/28 14:12:41;;;;;;;3.67;2.63;;;;;;;;;;5055270;28;20306;-65
2023/09/28 14:15:09;;;;;;;2.63;2.30;;;;;;;;;;5054170;28;20209;-65
2023/09/28 14:17:38;;;;;;;2.92;2.40;;;;;;;;;;5054683;28;20263;-65
2023/09/28 14:20:06;;;;;;;3.25;2.35;;;;;;;;;;5055150;28;20207;-65
2023/09/28 14:22:34;;;;;;;2.60;2.40;;;;;;;;;;5054805;28;20207;-65
2023/09/28 14:25:02;;;;;;;2.65;2.40;;;;;;;;;;5054992;28;20205;-65
2023/09/28 14:27:30;;;;;;;3.90;3.03;;;;;;;;;;5054514;28;20267;-65
2023/09/28 14:29:58;;;;;;;2.70;2.50;;;;;;;;;;5054305;28;20307;-65
2023/09/28 14:32:26;;;;;;;3.33;2.30;;;;;;;;;;5054648;28;20196;-65
2023/09/28 14:34:55;;;;;;;4.40;2.58;;;;;;;;;;5054641;28;20237;-65
2023/09/28 14:37:22;;;;;;;2.60;2.40;;;;;;;;;;5054325;28;20221;-65
2023/09/28 14:39:50;;;;;;;2.53;2.33;;;;;;;;;;5054353;28;20228;-65
2023/09/28 14:42:17;;;;;;;3.03;2.33;;;;;;;;;;5054363;28;20696;-65
2023/09/28 14:44:45;;;;;;;3.90;2.50;;;;;;;;;;5054039;28;20231;-65
2023/09/28 14:47:12;;;;;;;2.55;2.35;;;;;;;;;;5054089;28;20267;-65
2023/09/28 14:49:40;;;;;;;3.10;2.40;;;;;;;;;;5053301;28;20686;-65
2023/09/28 14:52:08;;;;;;;2.92;2.33;;;;;;;;;;5053874;28;20205;-65